sensor_id;sensor_type;location;lat;lon;timestamp;P1;durP1;ratioP1;P2;durP2;ratioP2
33190;SDS011;19554;42.652;23.364;2022-11-03T00:01:43;12.98;;;5.18;;
33190;SDS011;19554;42.652;23.364;2022-11-03T00:04:19;12.48;;;6.30;;
33190;SDS011;19554;42.652;23.364;2022-11-03T00:06:46;12.70;;;6.18;;
33190;SDS011;19554;42.652;23.364;2022-11-03T00:09:18;12.35;;;5.07;;
33190;SDS011;19554;42.652;23.364;2022-11-03T00:11:45;21.80;;;5.43;;
33190;SDS011;19554;42.652;23.364;2022-11-03T00:14:12;11.50;;;4.68;;
33190;SDS011;19554;42.652;23.364;2022-11-03T00:16:41;15.93;;;5.65;;
33190;SDS011;19554;42.652;23.364;2022-11-03T00:19:08;10.23;;;5.20;;
33190;SDS011;19554;42.652;23.364;2022-11-03T00:21:34;19.90;;;5.68;;
33190;SDS011;19554;42.652;23.364;2022-11-03T00:24:01;12.38;;;5.13;;
33190;SDS011;19554;42.652;23.364;2022-11-03T00:26:30;13.70;;;5.07;;
33190;SDS011;19554;42.652;23.364;2022-11-03T00:28:58;11.77;;;4.93;;
33190;SDS011;19554;42.652;23.364;2022-11-03T00:31:26;11.25;;;5.68;;
33190;SDS011;19554;42.652;23.364;2022-11-03T00:33:53;13.93;;;4.40;;
33190;SDS011;19554;42.652;23.364;2022-11-03T00:36:20;15.05;;;5.00;;
33190;SDS011;19554;42.652;23.364;2022-11-03T00:38:48;10.52;;;4.78;;
33190;SDS011;19554;42.652;23.364;2022-11-03T00:41:13;11.27;;;4.80;;
33190;SDS011;19554;42.652;23.364;2022-11-03T00:43:40;12.48;;;5.47;;
33190;SDS011;19554;42.652;23.364;2022-11-03T00:46:05;10.50;;;4.40;;
33190;SDS011;19554;42.652;23.364;2022-11-03T00:48:33;13.63;;;5.15;;
33190;SDS011;19554;42.652;23.364;2022-11-03T00:51:18;7.18;;;4.97;;
33190;SDS011;19554;42.652;23.364;2022-11-03T00:56:18;13.83;;;4.97;;
33190;SDS011;19554;42.652;23.364;2022-11-03T00:58:46;14.00;;;4.80;;
33190;SDS011;19554;42.652;23.364;2022-11-03T01:03:41;11.23;;;4.40;;
33190;SDS011;19554;42.652;23.364;2022-11-03T01:06:31;13.90;;;4.55;;
33190;SDS011;19554;42.652;23.364;2022-11-03T01:09:18;11.55;;;4.63;;
33190;SDS011;19554;42.652;23.364;2022-11-03T01:14:20;13.60;;;4.53;;
33190;SDS011;19554;42.652;23.364;2022-11-03T01:16:45;12.15;;;4.90;;
33190;SDS011;19554;42.652;23.364;2022-11-03T01:19:11;15.20;;;5.97;;
33190;SDS011;19554;42.652;23.364;2022-11-03T01:21:36;14.15;;;5.35;;
33190;SDS011;19554;42.652;23.364;2022-11-03T01:24:02;10.80;;;4.60;;
33190;SDS011;19554;42.652;23.364;2022-11-03T01:26:28;11.98;;;4.47;;
33190;SDS011;19554;42.652;23.364;2022-11-03T01:28:54;14.45;;;5.03;;
33190;SDS011;19554;42.652;23.364;2022-11-03T01:31:21;15.05;;;4.95;;
33190;SDS011;19554;42.652;23.364;2022-11-03T01:33:48;9.20;;;4.72;;
33190;SDS011;19554;42.652;23.364;2022-11-03T01:36:15;9.93;;;4.90;;
33190;SDS011;19554;42.652;23.364;2022-11-03T01:38:41;13.77;;;5.72;;
33190;SDS011;19554;42.652;23.364;2022-11-03T01:41:09;12.27;;;5.28;;
33190;SDS011;19554;42.652;23.364;2022-11-03T01:43:38;18.63;;;5.93;;
33190;SDS011;19554;42.652;23.364;2022-11-03T01:46:08;11.10;;;5.30;;
33190;SDS011;19554;42.652;23.364;2022-11-03T01:49:04;12.93;;;5.47;;
33190;SDS011;19554;42.652;23.364;2022-11-03T01:51:53;13.85;;;6.05;;
33190;SDS011;19554;42.652;23.364;2022-11-03T01:54:26;12.93;;;7.07;;
33190;SDS011;19554;42.652;23.364;2022-11-03T01:56:53;14.35;;;6.72;;
33190;SDS011;19554;42.652;23.364;2022-11-03T01:59:19;17.38;;;6.95;;
33190;SDS011;19554;42.652;23.364;2022-11-03T02:01:47;10.25;;;6.70;;
33190;SDS011;19554;42.652;23.364;2022-11-03T02:04:15;16.77;;;7.70;;
33190;SDS011;19554;42.652;23.364;2022-11-03T02:06:46;19.65;;;7.15;;
33190;SDS011;19554;42.652;23.364;2022-11-03T02:09:17;18.08;;;7.65;;
33190;SDS011;19554;42.652;23.364;2022-11-03T02:11:43;16.90;;;8.38;;
33190;SDS011;19554;42.652;23.364;2022-11-03T02:14:27;21.08;;;9.10;;
33190;SDS011;19554;42.652;23.364;2022-11-03T02:16:53;19.05;;;9.57;;
33190;SDS011;19554;42.652;23.364;2022-11-03T02:19:32;17.58;;;8.90;;
33190;SDS011;19554;42.652;23.364;2022-11-03T02:22:09;17.20;;;8.80;;
33190;SDS011;19554;42.652;23.364;2022-11-03T02:27:23;15.52;;;8.40;;
33190;SDS011;19554;42.652;23.364;2022-11-03T02:29:49;19.85;;;8.77;;
33190;SDS011;19554;42.652;23.364;2022-11-03T02:32:21;23.67;;;9.15;;
33190;SDS011;19554;42.652;23.364;2022-11-03T02:35:37;16.63;;;7.93;;
33190;SDS011;19554;42.652;23.364;2022-11-03T02:37:45;18.55;;;8.73;;
33190;SDS011;19554;42.652;23.364;2022-11-03T02:40:14;22.08;;;8.85;;
33190;SDS011;19554;42.652;23.364;2022-11-03T02:42:44;25.25;;;8.63;;
33190;SDS011;19554;42.652;23.364;2022-11-03T02:45:13;21.58;;;9.80;;
33190;SDS011;19554;42.652;23.364;2022-11-03T02:47:42;16.55;;;9.52;;
33190;SDS011;19554;42.652;23.364;2022-11-03T02:50:09;22.13;;;8.60;;
33190;SDS011;19554;42.652;23.364;2022-11-03T02:52:38;15.77;;;7.82;;
33190;SDS011;19554;42.652;23.364;2022-11-03T03:00:44;15.45;;;8.50;;
33190;SDS011;19554;42.652;23.364;2022-11-03T03:03:16;16.63;;;7.57;;
33190;SDS011;19554;42.652;23.364;2022-11-03T03:05:46;18.63;;;8.93;;
33190;SDS011;19554;42.652;23.364;2022-11-03T03:08:15;21.80;;;8.20;;
33190;SDS011;19554;42.652;23.364;2022-11-03T03:10:42;18.23;;;8.73;;
33190;SDS011;19554;42.652;23.364;2022-11-03T03:13:11;16.80;;;8.50;;
33190;SDS011;19554;42.652;23.364;2022-11-03T03:18:50;18.85;;;8.80;;
33190;SDS011;19554;42.652;23.364;2022-11-03T03:21:28;22.42;;;8.57;;
33190;SDS011;19554;42.652;23.364;2022-11-03T03:24:08;21.58;;;9.75;;
33190;SDS011;19554;42.652;23.364;2022-11-03T03:26:41;19.48;;;9.25;;
33190;SDS011;19554;42.652;23.364;2022-11-03T03:29:13;21.17;;;8.82;;
33190;SDS011;19554;42.652;23.364;2022-11-03T03:31:44;17.60;;;8.90;;
33190;SDS011;19554;42.652;23.364;2022-11-03T03:34:13;15.98;;;8.88;;
33190;SDS011;19554;42.652;23.364;2022-11-03T03:36:43;22.83;;;8.75;;
33190;SDS011;19554;42.652;23.364;2022-11-03T03:39:11;22.52;;;8.40;;
33190;SDS011;19554;42.652;23.364;2022-11-03T03:41:38;24.83;;;7.55;;
33190;SDS011;19554;42.652;23.364;2022-11-03T03:44:05;20.80;;;7.82;;
33190;SDS011;19554;42.652;23.364;2022-11-03T03:46:35;20.23;;;7.72;;
33190;SDS011;19554;42.652;23.364;2022-11-03T03:49:05;18.15;;;7.03;;
33190;SDS011;19554;42.652;23.364;2022-11-03T03:51:31;14.18;;;7.75;;
33190;SDS011;19554;42.652;23.364;2022-11-03T03:53:58;16.05;;;7.88;;
33190;SDS011;19554;42.652;23.364;2022-11-03T03:56:30;13.50;;;7.70;;
33190;SDS011;19554;42.652;23.364;2022-11-03T03:59:29;19.65;;;9.00;;
33190;SDS011;19554;42.652;23.364;2022-11-03T04:01:54;16.63;;;8.55;;
33190;SDS011;19554;42.652;23.364;2022-11-03T04:04:20;26.23;;;8.80;;
33190;SDS011;19554;42.652;23.364;2022-11-03T04:06:45;16.45;;;8.50;;
33190;SDS011;19554;42.652;23.364;2022-11-03T04:09:11;19.77;;;8.88;;
33190;SDS011;19554;42.652;23.364;2022-11-03T04:11:36;18.20;;;8.65;;
33190;SDS011;19554;42.652;23.364;2022-11-03T04:14:20;15.75;;;8.05;;
33190;SDS011;19554;42.652;23.364;2022-11-03T04:17:04;17.67;;;8.88;;
33190;SDS011;19554;42.652;23.364;2022-11-03T04:19:56;28.23;;;9.95;;
33190;SDS011;19554;42.652;23.364;2022-11-03T04:22:40;20.75;;;9.73;;
33190;SDS011;19554;42.652;23.364;2022-11-03T04:25:06;21.48;;;10.60;;
33190;SDS011;19554;42.652;23.364;2022-11-03T04:27:32;25.25;;;11.13;;
33190;SDS011;19554;42.652;23.364;2022-11-03T04:30:06;21.10;;;11.07;;
33190;SDS011;19554;42.652;23.364;2022-11-03T04:32:39;22.75;;;9.98;;
33190;SDS011;19554;42.652;23.364;2022-11-03T04:35:15;18.05;;;9.82;;
33190;SDS011;19554;42.652;23.364;2022-11-03T04:37:50;20.92;;;10.20;;
33190;SDS011;19554;42.652;23.364;2022-11-03T04:40:19;23.20;;;10.60;;
33190;SDS011;19554;42.652;23.364;2022-11-03T04:42:44;25.63;;;10.45;;
33190;SDS011;19554;42.652;23.364;2022-11-03T04:45:31;20.63;;;10.43;;
33190;SDS011;19554;42.652;23.364;2022-11-03T04:47:58;23.60;;;11.25;;
33190;SDS011;19554;42.652;23.364;2022-11-03T04:50:26;22.75;;;10.80;;
33190;SDS011;19554;42.652;23.364;2022-11-03T04:52:56;32.75;;;11.60;;
33190;SDS011;19554;42.652;23.364;2022-11-03T04:55:22;29.42;;;11.63;;
33190;SDS011;19554;42.652;23.364;2022-11-03T04:57:49;23.00;;;10.68;;
33190;SDS011;19554;42.652;23.364;2022-11-03T05:00:20;24.67;;;10.80;;
33190;SDS011;19554;42.652;23.364;2022-11-03T05:02:46;25.08;;;9.80;;
33190;SDS011;19554;42.652;23.364;2022-11-03T05:05:13;21.00;;;9.48;;
33190;SDS011;19554;42.652;23.364;2022-11-03T05:07:41;21.63;;;9.13;;
33190;SDS011;19554;42.652;23.364;2022-11-03T05:10:09;19.23;;;8.40;;
33190;SDS011;19554;42.652;23.364;2022-11-03T05:12:39;19.27;;;8.88;;
33190;SDS011;19554;42.652;23.364;2022-11-03T05:15:06;19.48;;;9.25;;
33190;SDS011;19554;42.652;23.364;2022-11-03T05:17:48;19.10;;;8.50;;
33190;SDS011;19554;42.652;23.364;2022-11-03T05:23:35;29.83;;;9.90;;
33190;SDS011;19554;42.652;23.364;2022-11-03T05:26:03;24.05;;;8.50;;
33190;SDS011;19554;42.652;23.364;2022-11-03T05:28:32;27.98;;;9.88;;
33190;SDS011;19554;42.652;23.364;2022-11-03T05:31:06;26.67;;;8.43;;
33190;SDS011;19554;42.652;23.364;2022-11-03T05:33:44;26.60;;;9.07;;
33190;SDS011;19554;42.652;23.364;2022-11-03T05:36:14;26.73;;;9.57;;
33190;SDS011;19554;42.652;23.364;2022-11-03T05:38:43;26.80;;;10.73;;
33190;SDS011;19554;42.652;23.364;2022-11-03T05:41:18;30.20;;;9.18;;
33190;SDS011;19554;42.652;23.364;2022-11-03T05:43:56;35.67;;;11.65;;
33190;SDS011;19554;42.652;23.364;2022-11-03T05:46:39;32.72;;;10.63;;
33190;SDS011;19554;42.652;23.364;2022-11-03T05:49:05;35.90;;;11.38;;
33190;SDS011;19554;42.652;23.364;2022-11-03T05:51:33;36.30;;;11.43;;
33190;SDS011;19554;42.652;23.364;2022-11-03T05:54:02;36.03;;;12.68;;
33190;SDS011;19554;42.652;23.364;2022-11-03T05:56:31;34.75;;;13.27;;
33190;SDS011;19554;42.652;23.364;2022-11-03T05:58:59;37.58;;;12.38;;
33190;SDS011;19554;42.652;23.364;2022-11-03T06:01:32;48.90;;;12.00;;
33190;SDS011;19554;42.652;23.364;2022-11-03T06:04:20;34.83;;;12.25;;
33190;SDS011;19554;42.652;23.364;2022-11-03T06:06:53;42.15;;;12.52;;
33190;SDS011;19554;42.652;23.364;2022-11-03T06:09:20;34.58;;;10.98;;
33190;SDS011;19554;42.652;23.364;2022-11-03T06:11:48;29.17;;;10.93;;
33190;SDS011;19554;42.652;23.364;2022-11-03T06:19:36;38.80;;;12.10;;
33190;SDS011;19554;42.652;23.364;2022-11-03T06:22:11;51.55;;;15.10;;
33190;SDS011;19554;42.652;23.364;2022-11-03T06:24:42;42.13;;;13.85;;
33190;SDS011;19554;42.652;23.364;2022-11-03T06:27:16;35.33;;;12.60;;
33190;SDS011;19554;42.652;23.364;2022-11-03T06:29:47;34.50;;;13.48;;
33190;SDS011;19554;42.652;23.364;2022-11-03T06:32:16;38.28;;;13.05;;
33190;SDS011;19554;42.652;23.364;2022-11-03T06:37:34;27.42;;;13.93;;
33190;SDS011;19554;42.652;23.364;2022-11-03T06:39:59;42.80;;;15.93;;
33190;SDS011;19554;42.652;23.364;2022-11-03T06:42:32;37.53;;;15.13;;
33190;SDS011;19554;42.652;23.364;2022-11-03T06:44:57;33.67;;;14.52;;
33190;SDS011;19554;42.652;23.364;2022-11-03T06:47:26;36.35;;;13.55;;
33190;SDS011;19554;42.652;23.364;2022-11-03T06:49:57;24.80;;;14.50;;
33190;SDS011;19554;42.652;23.364;2022-11-03T06:54:52;32.67;;;15.27;;
33190;SDS011;19554;42.652;23.364;2022-11-03T06:57:32;30.00;;;15.70;;
33190;SDS011;19554;42.652;23.364;2022-11-03T07:00:01;32.08;;;16.05;;
33190;SDS011;19554;42.652;23.364;2022-11-03T07:05:25;32.45;;;16.10;;
33190;SDS011;19554;42.652;23.364;2022-11-03T07:07:56;29.13;;;15.48;;
33190;SDS011;19554;42.652;23.364;2022-11-03T07:10:28;34.60;;;17.40;;
33190;SDS011;19554;42.652;23.364;2022-11-03T07:12:55;26.65;;;16.15;;
33190;SDS011;19554;42.652;23.364;2022-11-03T07:15:25;33.63;;;17.77;;
33190;SDS011;19554;42.652;23.364;2022-11-03T07:18:25;30.73;;;15.20;;
33190;SDS011;19554;42.652;23.364;2022-11-03T07:21:04;29.27;;;15.55;;
33190;SDS011;19554;42.652;23.364;2022-11-03T07:23:40;28.27;;;17.30;;
33190;SDS011;19554;42.652;23.364;2022-11-03T07:26:06;27.83;;;16.35;;
33190;SDS011;19554;42.652;23.364;2022-11-03T07:28:35;28.52;;;16.30;;
33190;SDS011;19554;42.652;23.364;2022-11-03T07:31:15;29.45;;;16.08;;
33190;SDS011;19554;42.652;23.364;2022-11-03T07:33:44;29.85;;;17.50;;
33190;SDS011;19554;42.652;23.364;2022-11-03T07:36:11;39.60;;;17.00;;
33190;SDS011;19554;42.652;23.364;2022-11-03T07:38:41;42.72;;;17.20;;
33190;SDS011;19554;42.652;23.364;2022-11-03T07:41:08;35.15;;;17.65;;
33190;SDS011;19554;42.652;23.364;2022-11-03T07:43:42;37.58;;;15.90;;
33190;SDS011;19554;42.652;23.364;2022-11-03T07:46:21;29.77;;;16.17;;
33190;SDS011;19554;42.652;23.364;2022-11-03T07:48:49;29.08;;;15.13;;
33190;SDS011;19554;42.652;23.364;2022-11-03T07:51:24;31.48;;;16.00;;
33190;SDS011;19554;42.652;23.364;2022-11-03T07:53:54;35.25;;;18.50;;
33190;SDS011;19554;42.652;23.364;2022-11-03T07:56:34;42.53;;;18.52;;
33190;SDS011;19554;42.652;23.364;2022-11-03T08:01:34;28.80;;;16.55;;
33190;SDS011;19554;42.652;23.364;2022-11-03T08:04:03;33.30;;;19.05;;
33190;SDS011;19554;42.652;23.364;2022-11-03T08:06:31;40.45;;;19.30;;
33190;SDS011;19554;42.652;23.364;2022-11-03T08:08:56;36.83;;;18.85;;
33190;SDS011;19554;42.652;23.364;2022-11-03T08:11:22;41.10;;;20.00;;
33190;SDS011;19554;42.652;23.364;2022-11-03T08:13:49;42.55;;;19.73;;
33190;SDS011;19554;42.652;23.364;2022-11-03T08:16:15;47.42;;;19.02;;
33190;SDS011;19554;42.652;23.364;2022-11-03T08:18:41;38.63;;;18.38;;
33190;SDS011;19554;42.652;23.364;2022-11-03T08:21:07;36.78;;;16.70;;
33190;SDS011;19554;42.652;23.364;2022-11-03T08:23:32;27.35;;;16.17;;
33190;SDS011;19554;42.652;23.364;2022-11-03T08:25:58;36.75;;;17.23;;
33190;SDS011;19554;42.652;23.364;2022-11-03T08:28:23;28.75;;;16.30;;
33190;SDS011;19554;42.652;23.364;2022-11-03T08:30:49;28.83;;;16.38;;
33190;SDS011;19554;42.652;23.364;2022-11-03T08:33:14;27.73;;;15.80;;
33190;SDS011;19554;42.652;23.364;2022-11-03T08:35:39;30.17;;;15.93;;
33190;SDS011;19554;42.652;23.364;2022-11-03T08:38:05;28.55;;;15.40;;
33190;SDS011;19554;42.652;23.364;2022-11-03T08:40:31;29.48;;;16.85;;
33190;SDS011;19554;42.652;23.364;2022-11-03T08:42:56;31.85;;;15.98;;
33190;SDS011;19554;42.652;23.364;2022-11-03T08:45:21;35.08;;;18.98;;
33190;SDS011;19554;42.652;23.364;2022-11-03T08:47:47;36.38;;;19.25;;
33190;SDS011;19554;42.652;23.364;2022-11-03T08:50:12;40.47;;;18.48;;
33190;SDS011;19554;42.652;23.364;2022-11-03T08:52:38;38.17;;;17.77;;
33190;SDS011;19554;42.652;23.364;2022-11-03T08:55:03;35.45;;;17.60;;
33190;SDS011;19554;42.652;23.364;2022-11-03T08:57:29;33.33;;;17.42;;
33190;SDS011;19554;42.652;23.364;2022-11-03T08:59:55;37.53;;;19.65;;
33190;SDS011;19554;42.652;23.364;2022-11-03T09:02:20;31.88;;;18.02;;
33190;SDS011;19554;42.652;23.364;2022-11-03T09:04:46;34.45;;;18.40;;
33190;SDS011;19554;42.652;23.364;2022-11-03T09:07:11;33.95;;;17.67;;
33190;SDS011;19554;42.652;23.364;2022-11-03T09:09:37;34.42;;;16.50;;
33190;SDS011;19554;42.652;23.364;2022-11-03T09:12:02;31.38;;;17.10;;
33190;SDS011;19554;42.652;23.364;2022-11-03T09:14:28;35.30;;;17.50;;
33190;SDS011;19554;42.652;23.364;2022-11-03T09:16:53;34.58;;;17.25;;
33190;SDS011;19554;42.652;23.364;2022-11-03T09:19:19;32.88;;;16.13;;
33190;SDS011;19554;42.652;23.364;2022-11-03T09:21:44;28.95;;;16.13;;
33190;SDS011;19554;42.652;23.364;2022-11-03T09:24:09;33.53;;;15.35;;
33190;SDS011;19554;42.652;23.364;2022-11-03T09:26:35;33.85;;;14.73;;
33190;SDS011;19554;42.652;23.364;2022-11-03T09:29:00;27.98;;;15.82;;
33190;SDS011;19554;42.652;23.364;2022-11-03T09:31:25;34.05;;;16.80;;
33190;SDS011;19554;42.652;23.364;2022-11-03T09:33:53;31.98;;;15.93;;
33190;SDS011;19554;42.652;23.364;2022-11-03T09:36:18;33.65;;;14.48;;
33190;SDS011;19554;42.652;23.364;2022-11-03T09:38:44;27.50;;;14.93;;
33190;SDS011;19554;42.652;23.364;2022-11-03T09:41:09;30.73;;;15.75;;
33190;SDS011;19554;42.652;23.364;2022-11-03T09:43:44;30.65;;;13.40;;
33190;SDS011;19554;42.652;23.364;2022-11-03T09:46:11;34.63;;;15.18;;
33190;SDS011;19554;42.652;23.364;2022-11-03T09:48:37;25.83;;;14.65;;
33190;SDS011;19554;42.652;23.364;2022-11-03T09:51:02;31.98;;;15.98;;
33190;SDS011;19554;42.652;23.364;2022-11-03T09:53:28;29.55;;;15.70;;
33190;SDS011;19554;42.652;23.364;2022-11-03T09:55:54;27.33;;;14.70;;
33190;SDS011;19554;42.652;23.364;2022-11-03T09:58:20;29.90;;;14.73;;
33190;SDS011;19554;42.652;23.364;2022-11-03T10:00:45;23.95;;;13.38;;
33190;SDS011;19554;42.652;23.364;2022-11-03T10:03:11;28.08;;;14.48;;
33190;SDS011;19554;42.652;23.364;2022-11-03T10:05:41;30.87;;;15.23;;
33190;SDS011;19554;42.652;23.364;2022-11-03T10:08:20;27.83;;;14.40;;
33190;SDS011;19554;42.652;23.364;2022-11-03T10:10:56;38.10;;;14.90;;
33190;SDS011;19554;42.652;23.364;2022-11-03T10:15:51;25.27;;;13.90;;
33190;SDS011;19554;42.652;23.364;2022-11-03T10:18:16;30.02;;;13.10;;
33190;SDS011;19554;42.652;23.364;2022-11-03T10:20:43;26.15;;;13.88;;
33190;SDS011;19554;42.652;23.364;2022-11-03T10:23:09;33.47;;;14.30;;
33190;SDS011;19554;42.652;23.364;2022-11-03T10:28:20;27.13;;;11.93;;
33190;SDS011;19554;42.652;23.364;2022-11-03T10:30:49;29.17;;;11.95;;
33190;SDS011;19554;42.652;23.364;2022-11-03T10:33:28;30.73;;;11.43;;
33190;SDS011;19554;42.652;23.364;2022-11-03T10:35:59;28.45;;;13.27;;
33190;SDS011;19554;42.652;23.364;2022-11-03T10:46:35;17.85;;;9.52;;
33190;SDS011;19554;42.652;23.364;2022-11-03T10:51:35;17.50;;;8.23;;
33190;SDS011;19554;42.652;23.364;2022-11-03T10:54:04;18.40;;;8.88;;
33190;SDS011;19554;42.652;23.364;2022-11-03T10:56:33;12.10;;;7.00;;
33190;SDS011;19554;42.652;23.364;2022-11-03T10:58:59;19.02;;;7.47;;
33190;SDS011;19554;42.652;23.364;2022-11-03T11:01:25;16.15;;;7.10;;
33190;SDS011;19554;42.652;23.364;2022-11-03T11:03:51;15.50;;;6.93;;
33190;SDS011;19554;42.652;23.364;2022-11-03T11:06:24;12.60;;;7.25;;
33190;SDS011;19554;42.652;23.364;2022-11-03T11:08:52;16.38;;;6.85;;
33190;SDS011;19554;42.652;23.364;2022-11-03T11:11:21;12.95;;;6.00;;
33190;SDS011;19554;42.652;23.364;2022-11-03T11:16:53;14.25;;;5.80;;
33190;SDS011;19554;42.652;23.364;2022-11-03T11:19:21;17.92;;;4.88;;
33190;SDS011;19554;42.652;23.364;2022-11-03T11:21:48;11.48;;;5.78;;
33190;SDS011;19554;42.652;23.364;2022-11-03T11:35:10;19.85;;;7.28;;
33190;SDS011;19554;42.652;23.364;2022-11-03T11:37:42;18.15;;;7.15;;
33190;SDS011;19554;42.652;23.364;2022-11-03T11:40:10;21.63;;;7.60;;
33190;SDS011;19554;42.652;23.364;2022-11-03T11:53:57;10.27;;;6.10;;
33190;SDS011;19554;42.652;23.364;2022-11-03T11:56:22;13.65;;;5.82;;
33190;SDS011;19554;42.652;23.364;2022-11-03T11:58:51;28.63;;;8.25;;
33190;SDS011;19554;42.652;23.364;2022-11-03T12:01:32;16.15;;;7.15;;
33190;SDS011;19554;42.652;23.364;2022-11-03T12:04:04;17.70;;;7.45;;
33190;SDS011;19554;42.652;23.364;2022-11-03T12:09:05;12.23;;;6.40;;
33190;SDS011;19554;42.652;23.364;2022-11-03T12:11:45;24.27;;;6.53;;
33190;SDS011;19554;42.652;23.364;2022-11-03T12:16:52;13.25;;;6.55;;
33190;SDS011;19554;42.652;23.364;2022-11-03T12:27:19;17.67;;;6.13;;
33190;SDS011;19554;42.652;23.364;2022-11-03T12:30:01;13.18;;;5.45;;
33190;SDS011;19554;42.652;23.364;2022-11-03T12:32:29;20.58;;;6.47;;
33190;SDS011;19554;42.652;23.364;2022-11-03T12:34:55;19.98;;;6.35;;
33190;SDS011;19554;42.652;23.364;2022-11-03T12:37:20;12.73;;;5.80;;
33190;SDS011;19554;42.652;23.364;2022-11-03T12:39:46;18.77;;;6.00;;
33190;SDS011;19554;42.652;23.364;2022-11-03T12:42:11;17.90;;;5.53;;
33190;SDS011;19554;42.652;23.364;2022-11-03T12:44:37;21.35;;;5.78;;
33190;SDS011;19554;42.652;23.364;2022-11-03T12:47:02;18.15;;;7.00;;
33190;SDS011;19554;42.652;23.364;2022-11-03T12:49:28;13.20;;;5.68;;
33190;SDS011;19554;42.652;23.364;2022-11-03T12:51:53;15.10;;;6.00;;
33190;SDS011;19554;42.652;23.364;2022-11-03T12:54:19;22.00;;;6.60;;
33190;SDS011;19554;42.652;23.364;2022-11-03T12:56:45;22.98;;;6.28;;
33190;SDS011;19554;42.652;23.364;2022-11-03T12:59:11;16.30;;;5.95;;
33190;SDS011;19554;42.652;23.364;2022-11-03T13:01:36;21.02;;;7.40;;
33190;SDS011;19554;42.652;23.364;2022-11-03T13:04:02;20.42;;;7.05;;
33190;SDS011;19554;42.652;23.364;2022-11-03T13:06:29;15.25;;;6.15;;
33190;SDS011;19554;42.652;23.364;2022-11-03T13:08:55;14.93;;;5.65;;
33190;SDS011;19554;42.652;23.364;2022-11-03T13:11:20;13.98;;;5.68;;
33190;SDS011;19554;42.652;23.364;2022-11-03T13:14:04;15.27;;;6.30;;
33190;SDS011;19554;42.652;23.364;2022-11-03T13:16:30;16.27;;;6.15;;
33190;SDS011;19554;42.652;23.364;2022-11-03T13:18:55;19.52;;;5.60;;
33190;SDS011;19554;42.652;23.364;2022-11-03T13:21:21;18.77;;;5.63;;
33190;SDS011;19554;42.652;23.364;2022-11-03T13:23:46;20.67;;;5.63;;
33190;SDS011;19554;42.652;23.364;2022-11-03T13:26:11;13.68;;;4.85;;
33190;SDS011;19554;42.652;23.364;2022-11-03T13:28:37;15.80;;;5.97;;
33190;SDS011;19554;42.652;23.364;2022-11-03T13:31:03;19.55;;;5.10;;
33190;SDS011;19554;42.652;23.364;2022-11-03T13:33:28;20.17;;;6.05;;
33190;SDS011;19554;42.652;23.364;2022-11-03T13:39:06;14.18;;;5.10;;
33190;SDS011;19554;42.652;23.364;2022-11-03T13:41:31;19.70;;;5.63;;
33190;SDS011;19554;42.652;23.364;2022-11-03T13:43:56;19.52;;;5.07;;
33190;SDS011;19554;42.652;23.364;2022-11-03T13:46:22;13.15;;;5.40;;
33190;SDS011;19554;42.652;23.364;2022-11-03T13:48:47;17.95;;;6.43;;
33190;SDS011;19554;42.652;23.364;2022-11-03T13:51:12;16.55;;;6.22;;
33190;SDS011;19554;42.652;23.364;2022-11-03T13:53:41;15.73;;;6.13;;
33190;SDS011;19554;42.652;23.364;2022-11-03T13:56:07;13.38;;;5.35;;
33190;SDS011;19554;42.652;23.364;2022-11-03T13:58:32;17.15;;;6.20;;
33190;SDS011;19554;42.652;23.364;2022-11-03T14:00:57;21.92;;;6.93;;
33190;SDS011;19554;42.652;23.364;2022-11-03T14:03:23;18.40;;;6.78;;
33190;SDS011;19554;42.652;23.364;2022-11-03T14:05:48;14.02;;;6.30;;
33190;SDS011;19554;42.652;23.364;2022-11-03T14:08:14;17.65;;;6.40;;
33190;SDS011;19554;42.652;23.364;2022-11-03T14:10:39;16.63;;;5.85;;
33190;SDS011;19554;42.652;23.364;2022-11-03T14:13:04;15.60;;;5.78;;
33190;SDS011;19554;42.652;23.364;2022-11-03T14:15:30;16.13;;;5.18;;
33190;SDS011;19554;42.652;23.364;2022-11-03T14:17:55;16.60;;;6.20;;
33190;SDS011;19554;42.652;23.364;2022-11-03T14:20:21;18.67;;;5.72;;
33190;SDS011;19554;42.652;23.364;2022-11-03T14:22:46;16.27;;;6.15;;
33190;SDS011;19554;42.652;23.364;2022-11-03T14:25:11;14.25;;;6.07;;
33190;SDS011;19554;42.652;23.364;2022-11-03T14:27:37;18.05;;;6.38;;
33190;SDS011;19554;42.652;23.364;2022-11-03T14:30:02;13.95;;;6.25;;
33190;SDS011;19554;42.652;23.364;2022-11-03T14:32:28;16.88;;;6.05;;
33190;SDS011;19554;42.652;23.364;2022-11-03T14:34:54;17.23;;;7.43;;
33190;SDS011;19554;42.652;23.364;2022-11-03T14:37:19;28.60;;;8.05;;
33190;SDS011;19554;42.652;23.364;2022-11-03T14:39:44;31.30;;;9.50;;
33190;SDS011;19554;42.652;23.364;2022-11-03T14:42:11;32.70;;;10.07;;
33190;SDS011;19554;42.652;23.364;2022-11-03T14:44:41;31.65;;;9.30;;
33190;SDS011;19554;42.652;23.364;2022-11-03T14:47:11;35.17;;;9.02;;
33190;SDS011;19554;42.652;23.364;2022-11-03T14:49:41;24.02;;;8.23;;
33190;SDS011;19554;42.652;23.364;2022-11-03T14:52:07;28.60;;;9.38;;
33190;SDS011;19554;42.652;23.364;2022-11-03T14:54:33;30.88;;;9.23;;
33190;SDS011;19554;42.652;23.364;2022-11-03T14:56:59;33.35;;;9.13;;
33190;SDS011;19554;42.652;23.364;2022-11-03T14:59:25;53.35;;;11.40;;
33190;SDS011;19554;42.652;23.364;2022-11-03T15:01:50;36.58;;;10.18;;
33190;SDS011;19554;42.652;23.364;2022-11-03T15:04:16;41.50;;;12.73;;
33190;SDS011;19554;42.652;23.364;2022-11-03T15:06:42;28.60;;;9.27;;
33190;SDS011;19554;42.652;23.364;2022-11-03T15:09:08;34.55;;;10.00;;
33190;SDS011;19554;42.652;23.364;2022-11-03T15:11:35;27.23;;;8.27;;
33190;SDS011;19554;42.652;23.364;2022-11-03T15:14:01;30.92;;;7.93;;
33190;SDS011;19554;42.652;23.364;2022-11-03T15:16:27;33.83;;;7.55;;
33190;SDS011;19554;42.652;23.364;2022-11-03T15:18:52;29.63;;;7.05;;
33190;SDS011;19554;42.652;23.364;2022-11-03T15:21:18;29.65;;;8.43;;
33190;SDS011;19554;42.652;23.364;2022-11-03T15:23:43;24.35;;;8.38;;
33190;SDS011;19554;42.652;23.364;2022-11-03T15:26:09;32.38;;;9.10;;
33190;SDS011;19554;42.652;23.364;2022-11-03T15:28:38;34.47;;;9.90;;
33190;SDS011;19554;42.652;23.364;2022-11-03T15:31:03;38.20;;;9.80;;
33190;SDS011;19554;42.652;23.364;2022-11-03T15:33:29;23.40;;;9.70;;
33190;SDS011;19554;42.652;23.364;2022-11-03T15:35:55;22.60;;;7.68;;
33190;SDS011;19554;42.652;23.364;2022-11-03T15:38:20;30.95;;;8.40;;
33190;SDS011;19554;42.652;23.364;2022-11-03T15:40:46;26.17;;;7.35;;
33190;SDS011;19554;42.652;23.364;2022-11-03T15:43:11;20.58;;;7.38;;
33190;SDS011;19554;42.652;23.364;2022-11-03T15:45:37;24.98;;;8.75;;
33190;SDS011;19554;42.652;23.364;2022-11-03T15:48:04;30.17;;;8.35;;
33190;SDS011;19554;42.652;23.364;2022-11-03T15:50:30;30.33;;;7.60;;
33190;SDS011;19554;42.652;23.364;2022-11-03T15:52:56;25.17;;;7.80;;
33190;SDS011;19554;42.652;23.364;2022-11-03T15:55:21;17.40;;;6.57;;
33190;SDS011;19554;42.652;23.364;2022-11-03T15:57:47;26.90;;;6.72;;
33190;SDS011;19554;42.652;23.364;2022-11-03T16:00:13;29.15;;;7.03;;
33190;SDS011;19554;42.652;23.364;2022-11-03T16:02:40;21.67;;;7.47;;